createdAt,value
2023-06-16T00:01:40.743Z,18.10
2023-06-16T00:04:09.923Z,18.00
2023-06-16T00:06:38.323Z,17.30
2023-06-16T00:09:05.773Z,17.80
2023-06-16T00:11:34.367Z,17.00
2023-06-16T00:14:01.804Z,17.50
2023-06-16T00:16:29.266Z,19.60
2023-06-16T00:18:59.684Z,19.20
2023-06-16T00:21:28.644Z,19.20
2023-06-16T00:23:56.649Z,18.80
2023-06-16T00:26:24.762Z,18.80
2023-06-16T00:28:52.301Z,18.30
2023-06-16T00:31:19.944Z,19.60
2023-06-16T00:33:47.965Z,20.10
2023-06-16T00:36:17.149Z,17.90
2023-06-16T00:38:44.688Z,19.50
2023-06-16T00:41:12.317Z,19.30
2023-06-16T00:43:39.686Z,20.30
2023-06-16T00:46:11.203Z,20.00
2023-06-16T00:48:38.645Z,21.50
2023-06-16T00:51:06.438Z,19.10
2023-06-16T00:53:33.984Z,20.50
2023-06-16T00:56:01.529Z,21.20
2023-06-16T00:58:29.790Z,20.70
2023-06-16T01:00:57.337Z,19.40
2023-06-16T01:03:24.843Z,20.40
2023-06-16T01:05:57.549Z,19.40
2023-06-16T01:08:45.899Z,21.00
2023-06-16T01:11:51.926Z,20.40
2023-06-16T01:14:44.816Z,20.60
2023-06-16T01:17:13.227Z,20.80
2023-06-16T01:19:51.365Z,19.30
2023-06-16T01:22:48.311Z,20.20
2023-06-16T01:25:16.650Z,20.10
2023-06-16T01:27:49.048Z,20.10
2023-06-16T01:30:17.040Z,22.10
2023-06-16T01:32:45.318Z,19.80
2023-06-16T01:35:13.604Z,20.00
2023-06-16T01:37:41.102Z,19.50
2023-06-16T01:40:09.340Z,20.40
2023-06-16T01:42:36.815Z,20.70
2023-06-16T01:45:04.852Z,19.30
2023-06-16T01:47:32.430Z,20.30
2023-06-16T01:50:00.189Z,20.20
2023-06-16T01:52:27.723Z,19.40
2023-06-16T01:54:55.177Z,19.40
2023-06-16T01:57:22.672Z,20.80
2023-06-16T02:00:04.466Z,19.80
2023-06-16T02:02:44.682Z,19.50
2023-06-16T02:05:12.839Z,21.10
2023-06-16T02:07:42.365Z,21.50
2023-06-16T02:10:11.396Z,20.40
2023-06-16T02:12:38.912Z,19.80
2023-06-16T02:15:08.452Z,21.10
2023-06-16T02:17:35.929Z,19.40
2023-06-16T02:20:07.157Z,19.40
2023-06-16T02:22:35.958Z,20.80
2023-06-16T02:25:03.723Z,20.10
2023-06-16T02:27:31.416Z,19.50
2023-06-16T02:29:59.175Z,20.90
2023-06-16T02:32:28.266Z,20.40
2023-06-16T02:34:57.482Z,21.10
2023-06-16T02:37:26.899Z,20.60
2023-06-16T02:39:56.953Z,22.10
2023-06-16T02:42:24.509Z,21.80
2023-06-16T02:44:52.019Z,21.60
2023-06-16T02:47:19.719Z,20.50
2023-06-16T02:49:47.822Z,21.30
2023-06-16T02:52:15.368Z,22.40
2023-06-16T02:54:43.523Z,21.00
2023-06-16T02:57:14.783Z,22.40
2023-06-16T02:59:46.662Z,21.30
2023-06-16T03:02:14.156Z,23.20
2023-06-16T03:05:02.492Z,19.40
2023-06-16T03:07:35.527Z,20.40
2023-06-16T03:10:04.378Z,22.00
2023-06-16T03:12:41.798Z,21.40
2023-06-16T03:15:10.928Z,22.90
2023-06-16T03:17:39.214Z,22.70
2023-06-16T03:20:08.331Z,21.50
2023-06-16T03:22:45.763Z,22.50
2023-06-16T03:25:13.598Z,23.30
2023-06-16T03:27:45.206Z,23.40
2023-06-16T03:30:17.205Z,23.80
2023-06-16T03:32:53.889Z,22.60
2023-06-16T03:35:21.693Z,21.40
2023-06-16T03:37:49.260Z,23.30
2023-06-16T03:40:19.438Z,23.80
2023-06-16T03:42:48.009Z,23.00
2023-06-16T03:45:16.199Z,23.80
2023-06-16T03:47:44.139Z,23.70
2023-06-16T03:50:12.542Z,24.50
2023-06-16T03:52:42.502Z,25.10
2023-06-16T03:55:10.289Z,24.30
2023-06-16T03:57:38.335Z,24.30
2023-06-16T04:00:10.506Z,26.80
2023-06-16T04:02:49.641Z,25.50
2023-06-16T04:05:25.975Z,27.60
2023-06-16T04:07:58.947Z,25.70
2023-06-16T04:10:26.452Z,26.10
2023-06-16T04:12:55.339Z,26.10
2023-06-16T04:15:25.656Z,25.30
2023-06-16T04:17:53.794Z,27.00
2023-06-16T04:20:22.922Z,24.60
2023-06-16T04:22:50.898Z,25.50
2023-06-16T04:25:19.464Z,24.10
2023-06-16T04:27:51.135Z,24.90
2023-06-16T04:30:23.588Z,24.00
2023-06-16T04:32:52.002Z,25.30
2023-06-16T04:35:22.798Z,21.80
2023-06-16T04:37:50.335Z,21.40
2023-06-16T04:40:18.609Z,22.30
2023-06-16T04:42:48.517Z,21.00
2023-06-16T04:45:16.912Z,20.20
2023-06-16T04:47:46.229Z,19.50
2023-06-16T04:50:14.988Z,20.30
2023-06-16T04:52:42.571Z,20.10
2023-06-16T04:55:10.270Z,17.10
2023-06-16T04:59:33.343Z,15.50
2023-06-16T05:02:00.727Z,15.80
2023-06-16T05:04:28.308Z,15.20
2023-06-16T05:06:55.108Z,15.10
2023-06-16T05:09:21.972Z,15.20
2023-06-16T05:11:49.237Z,15.30
2023-06-16T05:14:16.323Z,15.30
2023-06-16T05:16:43.462Z,14.20
2023-06-16T05:19:10.846Z,15.50
2023-06-16T05:24:10.967Z,14.00
2023-06-16T05:26:38.796Z,14.10
2023-06-16T05:29:06.039Z,13.50
2023-06-16T05:31:35.536Z,11.50
2023-06-16T05:34:02.522Z,11.90
2023-06-16T05:36:32.081Z,10.80
2023-06-16T05:38:58.991Z,12.60
2023-06-16T05:41:31.282Z,13.90
2023-06-16T05:43:58.369Z,12.40
2023-06-16T05:46:25.366Z,11.50
2023-06-16T05:48:52.763Z,10.80
2023-06-16T05:51:19.650Z,9.10
2023-06-16T05:53:46.624Z,9.60
2023-06-16T05:56:13.544Z,8.90
2023-06-16T05:58:41.195Z,8.80
2023-06-16T06:01:07.996Z,9.80
2023-06-16T06:03:36.546Z,8.70
2023-06-16T06:06:05.688Z,7.10
2023-06-16T06:08:32.714Z,6.20
2023-06-16T06:11:02.595Z,6.80
2023-06-16T06:13:29.661Z,6.80
2023-06-16T06:15:56.878Z,6.20
2023-06-16T06:18:23.822Z,6.20
2023-06-16T06:20:52.066Z,6.20
2023-06-16T06:23:19.024Z,5.30
2023-06-16T06:25:46.536Z,5.00
2023-06-16T06:28:16.326Z,4.70
2023-06-16T06:30:42.881Z,4.30
2023-06-16T06:33:09.588Z,5.40
2023-06-16T06:35:36.697Z,4.90
2023-06-16T06:38:05.450Z,5.30
2023-06-16T06:40:33.161Z,4.70
2023-06-16T06:43:00.875Z,5.00
2023-06-16T06:45:38.313Z,5.00
2023-06-16T06:48:05.350Z,5.30
2023-06-16T06:50:32.763Z,5.20
2023-06-16T06:52:59.433Z,5.60
2023-06-16T06:55:26.051Z,5.50
2023-06-16T06:57:52.888Z,5.20
2023-06-16T07:00:19.746Z,5.10
2023-06-16T07:02:47.970Z,5.20
2023-06-16T07:05:15.189Z,5.30
2023-06-16T07:07:42.029Z,5.40
2023-06-16T07:10:11.074Z,4.90
2023-06-16T07:12:37.918Z,5.20
2023-06-16T07:15:05.115Z,4.90
2023-06-16T07:17:34.639Z,5.00
2023-06-16T07:20:01.712Z,4.80
2023-06-16T07:22:28.794Z,5.40
2023-06-16T07:24:55.569Z,5.30
2023-06-16T07:27:22.920Z,4.70
2023-06-16T07:29:49.534Z,4.60
2023-06-16T07:32:16.052Z,4.70
2023-06-16T07:34:42.820Z,4.10
2023-06-16T07:37:09.487Z,5.20
2023-06-16T07:39:36.789Z,4.80
2023-06-16T07:42:03.984Z,5.00
2023-06-16T07:44:31.351Z,4.50
2023-06-16T07:47:10.475Z,4.90
2023-06-16T07:49:38.301Z,4.30
2023-06-16T07:52:05.147Z,4.20
2023-06-16T07:54:32.380Z,4.40
2023-06-16T07:56:59.248Z,4.80
2023-06-16T07:59:27.292Z,4.00
2023-06-16T08:01:54.747Z,4.00
2023-06-16T08:04:21.632Z,4.60
2023-06-16T08:06:48.791Z,4.30
2023-06-16T08:09:16.134Z,4.30
2023-06-16T08:11:43.307Z,4.00
2023-06-16T08:14:10.324Z,4.40
2023-06-16T08:16:37.097Z,4.20
2023-06-16T08:19:03.625Z,4.60
2023-06-16T08:21:30.548Z,5.40
2023-06-16T08:23:58.025Z,4.60
2023-06-16T08:26:24.726Z,4.50
2023-06-16T08:28:56.327Z,4.80
2023-06-16T08:31:23.047Z,4.80
2023-06-16T08:33:55.334Z,4.40
2023-06-16T08:36:24.001Z,5.30
2023-06-16T08:38:53.675Z,4.80
2023-06-16T08:41:20.556Z,5.00
2023-06-16T08:43:51.664Z,5.10
2023-06-16T08:46:18.804Z,5.30
2023-06-16T08:48:46.084Z,4.70
2023-06-16T08:51:14.751Z,4.90
2023-06-16T08:53:41.890Z,5.30
2023-06-16T08:56:09.700Z,4.90
2023-06-16T08:58:37.860Z,4.60
2023-06-16T09:01:07.362Z,4.50
2023-06-16T09:03:35.559Z,4.70
2023-06-16T09:06:02.948Z,4.90
2023-06-16T09:08:30.425Z,4.70
2023-06-16T09:10:57.453Z,4.80
2023-06-16T09:13:27.571Z,4.50
2023-06-16T09:15:57.620Z,4.60
2023-06-16T09:18:25.502Z,4.80
2023-06-16T09:20:53.525Z,4.40
2023-06-16T09:23:30.275Z,4.60
2023-06-16T09:25:57.063Z,4.70
2023-06-16T09:28:34.994Z,4.20
2023-06-16T09:31:11.699Z,4.90
2023-06-16T09:33:40.093Z,4.80
2023-06-16T09:36:08.181Z,4.30
2023-06-16T09:38:38.664Z,4.60
2023-06-16T09:41:09.699Z,4.80
2023-06-16T09:43:40.364Z,4.60
2023-06-16T09:46:10.232Z,4.50
2023-06-16T09:48:48.096Z,4.30
2023-06-16T09:51:18.621Z,4.10
2023-06-16T09:53:46.375Z,4.20
2023-06-16T09:56:17.018Z,4.60
2023-06-16T09:58:44.927Z,4.90
2023-06-16T10:01:13.961Z,4.70
2023-06-16T10:03:42.213Z,4.40
2023-06-16T10:06:15.124Z,4.40
2023-06-16T10:08:41.829Z,4.50
2023-06-16T10:11:10.920Z,4.00
2023-06-16T10:13:38.745Z,4.70
2023-06-16T10:16:06.327Z,4.60
2023-06-16T10:18:33.028Z,4.30
2023-06-16T10:21:00.038Z,3.80
2023-06-16T10:23:26.855Z,4.30
2023-06-16T10:25:53.343Z,4.20
2023-06-16T10:28:20.854Z,4.20
2023-06-16T10:30:49.101Z,3.80
2023-06-16T10:33:29.149Z,3.80
2023-06-16T10:36:11.430Z,4.10
2023-06-16T10:38:43.003Z,3.90
2023-06-16T10:41:15.321Z,4.90
2023-06-16T10:43:42.280Z,4.30
2023-06-16T10:46:16.839Z,4.40
2023-06-16T10:48:57.409Z,4.70
2023-06-16T10:51:41.549Z,4.00
2023-06-16T10:54:09.028Z,4.20
2023-06-16T10:57:10.602Z,4.60
2023-06-16T10:59:51.639Z,4.50
2023-06-16T11:02:19.570Z,4.30
2023-06-16T11:05:09.374Z,4.50
2023-06-16T11:08:06.932Z,3.70
2023-06-16T11:10:52.747Z,3.80
2023-06-16T11:13:32.657Z,4.40
2023-06-16T11:16:00.466Z,4.10
2023-06-16T11:18:28.250Z,4.50
2023-06-16T11:20:58.870Z,4.90
2023-06-16T11:23:25.834Z,4.50
2023-06-16T11:25:53.493Z,4.60
2023-06-16T11:28:21.453Z,3.80
2023-06-16T11:30:49.147Z,4.40
2023-06-16T11:33:16.773Z,4.20
2023-06-16T11:35:43.676Z,4.40
2023-06-16T11:38:10.809Z,3.90
2023-06-16T11:40:38.144Z,4.10
2023-06-16T11:43:08.162Z,3.80
2023-06-16T11:45:38.293Z,3.60
2023-06-16T11:48:09.203Z,4.20
2023-06-16T11:50:36.396Z,4.00
2023-06-16T11:53:03.184Z,4.50
2023-06-16T11:55:30.554Z,3.80
2023-06-16T11:58:00.486Z,3.80
2023-06-16T12:00:27.824Z,4.20
2023-06-16T12:02:54.722Z,4.20
2023-06-16T12:05:24.777Z,4.20
2023-06-16T12:07:51.812Z,4.60
2023-06-16T12:10:18.758Z,4.40
2023-06-16T12:12:46.584Z,4.70
2023-06-16T12:15:17.667Z,3.70
2023-06-16T12:17:45.640Z,5.00
2023-06-16T12:20:13.286Z,4.20
2023-06-16T12:22:41.238Z,4.60
2023-06-16T12:25:15.630Z,4.70
2023-06-16T12:27:49.835Z,4.30
2023-06-16T12:30:16.881Z,4.10
2023-06-16T12:32:45.495Z,4.20
2023-06-16T12:35:12.769Z,4.40
2023-06-16T12:37:40.641Z,4.70
2023-06-16T12:40:11.472Z,4.20
2023-06-16T12:42:38.426Z,4.70
2023-06-16T12:45:05.942Z,5.00
2023-06-16T12:47:33.711Z,4.30
2023-06-16T12:50:02.974Z,4.50
2023-06-16T12:52:30.265Z,3.60
2023-06-16T12:54:58.576Z,3.90
2023-06-16T12:57:26.325Z,4.00
2023-06-16T12:59:53.351Z,3.70
2023-06-16T13:02:21.492Z,4.40
2023-06-16T13:04:48.478Z,3.90
2023-06-16T13:07:15.499Z,4.10
2023-06-16T13:09:42.959Z,4.30
2023-06-16T13:12:10.375Z,4.20
2023-06-16T13:14:37.630Z,4.00
2023-06-16T13:17:05.179Z,4.60
2023-06-16T13:19:32.808Z,4.20
2023-06-16T13:22:02.371Z,3.90
2023-06-16T13:24:30.535Z,3.80
2023-06-16T13:26:57.643Z,3.90
2023-06-16T13:29:27.323Z,4.10
2023-06-16T13:31:54.095Z,3.70
2023-06-16T13:34:20.984Z,4.20
2023-06-16T13:36:47.843Z,4.30
2023-06-16T13:39:15.210Z,4.60
2023-06-16T13:41:42.215Z,4.30
2023-06-16T13:44:10.166Z,3.90
2023-06-16T13:46:37.118Z,3.70
2023-06-16T13:49:03.945Z,3.90
2023-06-16T13:51:31.260Z,4.90
2023-06-16T13:53:58.076Z,4.10
2023-06-16T13:56:24.627Z,5.20
2023-06-16T13:58:51.283Z,4.00
2023-06-16T14:01:18.308Z,4.70
2023-06-16T14:03:45.651Z,4.60
2023-06-16T14:06:14.505Z,4.50
2023-06-16T14:08:41.609Z,4.10
2023-06-16T14:11:08.354Z,4.40
2023-06-16T14:13:35.460Z,4.40
2023-06-16T14:16:03.770Z,4.20
2023-06-16T14:18:30.823Z,4.30
2023-06-16T14:20:57.636Z,3.90
2023-06-16T14:23:24.387Z,4.00
2023-06-16T14:25:51.303Z,4.20
2023-06-16T14:28:18.012Z,3.80
2023-06-16T14:30:44.740Z,4.50
2023-06-16T14:33:12.446Z,4.10
2023-06-16T14:35:40.881Z,4.20
2023-06-16T14:38:07.969Z,4.20
2023-06-16T14:40:35.834Z,4.80
2023-06-16T14:43:02.554Z,4.30
2023-06-16T14:45:30.706Z,4.30
2023-06-16T14:47:57.547Z,4.50
2023-06-16T14:50:24.554Z,4.10
2023-06-16T14:52:51.781Z,4.90
2023-06-16T14:55:18.857Z,4.70
2023-06-16T14:57:45.760Z,4.60
2023-06-16T15:00:13.328Z,4.50
2023-06-16T15:02:40.706Z,4.40
2023-06-16T15:05:08.725Z,4.20
2023-06-16T15:07:37.423Z,4.80
2023-06-16T15:10:04.928Z,4.20
2023-06-16T15:12:32.561Z,4.10
2023-06-16T15:14:59.336Z,4.40
2023-06-16T15:17:26.245Z,4.00
2023-06-16T15:19:53.275Z,4.60
2023-06-16T15:22:20.278Z,4.10
2023-06-16T15:24:47.016Z,3.70
2023-06-16T15:27:13.935Z,3.90
2023-06-16T15:29:41.407Z,4.20
2023-06-16T15:32:10.925Z,4.40
2023-06-16T15:34:38.310Z,3.70
2023-06-16T15:37:06.304Z,4.90
2023-06-16T15:39:34.866Z,3.90
2023-06-16T15:42:03.670Z,4.80
2023-06-16T15:44:30.412Z,4.00
2023-06-16T15:46:57.629Z,4.20
2023-06-16T15:49:25.297Z,4.00
2023-06-16T15:51:52.714Z,4.10
2023-06-16T15:54:20.142Z,4.00
2023-06-16T15:56:46.792Z,4.00
2023-06-16T15:59:13.480Z,4.00
2023-06-16T16:01:41.684Z,4.20
2023-06-16T16:04:09.421Z,3.90
2023-06-16T16:06:39.013Z,3.90
2023-06-16T16:09:09.746Z,4.50
2023-06-16T16:11:41.073Z,4.10
2023-06-16T16:14:08.231Z,4.00
2023-06-16T16:16:35.367Z,4.50
2023-06-16T16:19:02.181Z,4.50
2023-06-16T16:21:29.125Z,4.20
2023-06-16T16:23:58.957Z,4.20
2023-06-16T16:26:26.010Z,5.20
2023-06-16T16:28:52.982Z,4.80
2023-06-16T16:31:21.382Z,4.50
2023-06-16T16:33:48.798Z,4.40
2023-06-16T16:36:16.698Z,4.10
2023-06-16T16:38:44.221Z,5.00
2023-06-16T16:41:11.002Z,5.10
2023-06-16T16:43:38.385Z,4.90
2023-06-16T16:46:05.704Z,4.90
2023-06-16T16:48:33.029Z,5.50
2023-06-16T16:51:00.208Z,4.40
2023-06-16T16:53:28.028Z,4.60
2023-06-16T16:55:55.059Z,4.70
2023-06-16T16:58:23.033Z,4.40
2023-06-16T17:00:50.185Z,5.00
2023-06-16T17:03:17.079Z,4.10
2023-06-16T17:05:44.559Z,4.30
2023-06-16T17:08:11.828Z,5.00
2023-06-16T17:10:38.619Z,4.50
2023-06-16T17:13:18.149Z,4.80
2023-06-16T17:17:35.931Z,5.50
2023-06-16T17:20:05.590Z,5.50
2023-06-16T17:22:33.081Z,5.20
2023-06-16T17:25:01.365Z,4.70
2023-06-16T17:27:30.888Z,5.80
2023-06-16T17:30:02.258Z,5.80
2023-06-16T17:32:29.806Z,4.40
2023-06-16T17:34:59.747Z,5.20
2023-06-16T17:37:30.340Z,5.00
2023-06-16T17:39:59.189Z,6.00
2023-06-16T17:42:29.501Z,4.40
2023-06-16T17:44:58.707Z,5.20
2023-06-16T17:47:31.594Z,5.00
2023-06-16T17:50:01.598Z,5.50
2023-06-16T17:52:29.909Z,4.80
2023-06-16T17:54:59.310Z,5.20
2023-06-16T17:57:27.137Z,5.00
2023-06-16T17:59:57.441Z,5.30
2023-06-16T18:02:25.873Z,5.00
2023-06-16T18:04:53.904Z,5.50
2023-06-16T18:07:22.267Z,5.50
2023-06-16T18:09:49.781Z,6.00
2023-06-16T18:12:17.421Z,5.50
2023-06-16T18:14:45.271Z,5.90
2023-06-16T18:17:12.962Z,5.50
2023-06-16T18:19:40.836Z,5.60
2023-06-16T18:22:08.258Z,5.70
2023-06-16T18:24:38.411Z,6.10
2023-06-16T18:27:06.125Z,5.80
2023-06-16T18:29:36.199Z,5.90
2023-06-16T18:32:03.977Z,6.20
2023-06-16T18:34:32.289Z,6.20
2023-06-16T18:37:01.624Z,6.30
2023-06-16T18:39:34.666Z,5.40
2023-06-16T18:42:03.568Z,6.00
2023-06-16T18:44:31.498Z,5.90
2023-06-16T18:47:00.695Z,5.80
2023-06-16T18:49:28.322Z,5.80
2023-06-16T18:51:57.553Z,5.60
2023-06-16T18:54:25.663Z,5.90
2023-06-16T18:56:53.456Z,5.90
2023-06-16T18:59:20.928Z,6.60
2023-06-16T19:01:48.696Z,5.50
2023-06-16T19:04:17.168Z,6.20
2023-06-16T19:06:44.889Z,5.60
2023-06-16T19:09:15.048Z,5.30
2023-06-16T19:11:42.962Z,5.60
2023-06-16T19:14:10.399Z,5.30
2023-06-16T19:16:38.123Z,5.70
2023-06-16T19:19:05.879Z,5.60
2023-06-16T19:21:33.857Z,5.40
2023-06-16T19:24:01.747Z,5.80
2023-06-16T19:26:29.415Z,6.20
2023-06-16T19:28:57.091Z,5.90
2023-06-16T19:31:27.132Z,6.50
2023-06-16T19:33:55.262Z,4.90
2023-06-16T19:36:23.187Z,5.60
2023-06-16T19:38:53.892Z,5.70
2023-06-16T19:41:21.721Z,5.80
2023-06-16T19:43:49.247Z,5.40
2023-06-16T19:46:19.094Z,6.20
2023-06-16T19:48:47.566Z,5.90
2023-06-16T19:51:15.337Z,7.00
2023-06-16T19:53:42.823Z,6.10
2023-06-16T19:56:10.572Z,6.10
2023-06-16T19:58:38.001Z,5.70
2023-06-16T20:01:06.056Z,5.70
2023-06-16T20:03:33.961Z,5.50
2023-06-16T20:06:01.728Z,5.60
2023-06-16T20:08:29.308Z,5.40
2023-06-16T20:10:56.838Z,6.40
2023-06-16T20:13:24.362Z,5.50
2023-06-16T20:15:51.831Z,5.50
2023-06-16T20:18:19.733Z,5.70
2023-06-16T20:20:50.259Z,5.20
2023-06-16T20:23:18.538Z,5.90
2023-06-16T20:25:46.557Z,5.40
2023-06-16T20:28:14.316Z,5.50
2023-06-16T20:30:42.076Z,5.60
2023-06-16T20:33:10.484Z,5.10
2023-06-16T20:35:38.317Z,5.80
2023-06-16T20:38:05.957Z,5.70
2023-06-16T20:40:34.555Z,5.30
2023-06-16T20:43:04.383Z,6.30
2023-06-16T20:45:32.494Z,5.80
2023-06-16T20:48:00.088Z,6.50
2023-06-16T20:50:28.705Z,6.80
2023-06-16T20:52:58.267Z,6.10
2023-06-16T20:55:25.816Z,6.00
2023-06-16T20:57:58.027Z,6.50
2023-06-16T21:00:30.303Z,5.90
2023-06-16T21:02:58.829Z,6.30
2023-06-16T21:05:26.654Z,6.60
2023-06-16T21:07:58.495Z,6.90
2023-06-16T21:10:28.725Z,6.10
2023-06-16T21:12:56.208Z,6.30
2023-06-16T21:15:23.849Z,6.80
2023-06-16T21:17:51.368Z,5.40
2023-06-16T21:20:20.539Z,5.90
2023-06-16T21:22:52.366Z,6.60
2023-06-16T21:25:19.884Z,6.10
2023-06-16T21:27:47.493Z,6.10
2023-06-16T21:30:15.017Z,6.30
2023-06-16T21:32:42.634Z,6.30
2023-06-16T21:35:11.916Z,7.20
2023-06-16T21:37:41.974Z,6.20
2023-06-16T21:40:11.707Z,5.90
2023-06-16T21:42:40.924Z,6.30
2023-06-16T21:45:09.439Z,5.90
2023-06-16T21:47:37.029Z,5.80
2023-06-16T21:50:05.549Z,6.50
2023-06-16T21:52:32.964Z,6.40
2023-06-16T21:55:01.814Z,6.50
2023-06-16T21:57:29.768Z,5.90
2023-06-16T21:59:57.953Z,6.40
2023-06-16T22:02:26.170Z,7.60
2023-06-16T22:04:53.758Z,6.80
2023-06-16T22:07:22.159Z,6.70
2023-06-16T22:09:52.214Z,6.40
2023-06-16T22:12:19.988Z,6.60
2023-06-16T22:14:47.782Z,7.00
2023-06-16T22:17:15.720Z,6.30
2023-06-16T22:19:44.164Z,6.50
2023-06-16T22:22:12.379Z,6.00
2023-06-16T22:24:42.536Z,6.80
2023-06-16T22:29:41.033Z,6.30
2023-06-16T22:32:08.780Z,6.80
2023-06-16T22:34:36.455Z,7.10
2023-06-16T22:37:04.276Z,6.90
2023-06-16T22:39:31.728Z,6.40
2023-06-16T22:42:00.255Z,5.80
2023-06-16T22:44:27.668Z,6.00
2023-06-16T22:46:57.572Z,6.40
2023-06-16T22:49:25.583Z,6.30
2023-06-16T22:51:54.601Z,6.90
2023-06-16T22:54:22.045Z,6.00
2023-06-16T22:56:49.543Z,5.70
2023-06-16T22:59:17.055Z,6.60
2023-06-16T23:01:44.549Z,5.30
2023-06-16T23:04:12.200Z,5.90
2023-06-16T23:06:40.414Z,5.90
2023-06-16T23:09:07.999Z,5.90
2023-06-16T23:11:35.541Z,6.00
2023-06-16T23:14:03.663Z,5.70
2023-06-16T23:16:31.269Z,5.60
2023-06-16T23:18:58.949Z,5.40
2023-06-16T23:21:27.846Z,5.30
2023-06-16T23:23:56.501Z,6.50
2023-06-16T23:26:24.344Z,6.10
2023-06-16T23:28:51.874Z,5.70
2023-06-16T23:31:20.446Z,5.30
2023-06-16T23:33:48.548Z,6.30
2023-06-16T23:36:19.179Z,6.50
2023-06-16T23:38:46.697Z,6.20
2023-06-16T23:41:14.400Z,6.60
2023-06-16T23:43:41.918Z,6.70
2023-06-16T23:46:09.433Z,6.30
2023-06-16T23:48:36.900Z,7.20
2023-06-16T23:51:04.353Z,6.50
2023-06-16T23:53:32.613Z,6.80
2023-06-16T23:56:00.209Z,6.80
2023-06-16T23:58:29.393Z,6.90
